Tiempo atmosférico en la estación meteorológica de Pola de Somiedo, Asturias (668 m.)



Fecha
DESCASC
Temp. máxima en grados centígrados (hora)
DESCASC
Temp. mínima en grados centígrados (hora)
DESCASC
Temp. media en grados centígrados
DESCASC
Racha de viento máxima en m/sg (hora)
DESCASC
Velocidad máxima media en intervalos de 10 minutos(hora)
DESCASC
Precipitaciones diarias en mm
DESCASC
Precipitaciones de 00:00 a 06:00 en mm
DESCASC
Precipitaciones de 06:00 a 12:00 en mm
DESCASC
Precipitaciones de 12:00 a 18:00 en mm
DESCASC
Precipitaciones de 18:00 a 24:00 en mm
DESCASC
27-10-2020 16.8 (12:20) 6.1 (00:30) 11.4 8.89 (12:20) 4.17 (12:20) 0 0 0 0 0
26-10-2020 11.4 (14:50) 4.9 (03:00) 8.1 10.28 (18:10) 3.89 (14:40) 0.4 0.2 0 0.2 0
25-10-2020 16.6 (00:20) 4.9 (20:00) 10.8 15.28 (00:50) 6.11 (00:10) 33.6 20.6 6 6 1
24-10-2020 16.4 (23:30) 5.6 (00:00) 11 19.72 (22:00) 8.61 (22:00) 0 0 0 0 0
23-10-2020 17.3 (16:00) 5.6 (00:00) 11.4 5.28 (15:00) 2.5 (14:50) 0.6 0 0.6 0 0
22-10-2020 17.7 (16:10) 7.4 (00:00) 12.6 7.78 (10:00) 2.78 (10:10) 0.6 0.2 0 0.2 0.2
21-10-2020 16.9 (15:40) 8.9 (00:00) 12.9 10 (05:40) 3.61 (17:30) 9.4 6.8 0.2 0.4 2
20-10-2020 17.4 (13:10) 11.2 (00:00) 14.3 12.22 (00:50) 5.28 (11:10) 21.2 0 0 7.2 14
19-10-2020 20.5 (14:50) 8.4 (00:00) 14.4 15.28 (12:10) 6.94 (17:20) 6.6 0 0 0 6.6
18-10-2020 20.8 (14:10) 4.2 (00:00) 12.5 5.28 (15:50) 2.22 (13:40) 0 0 0 0 0
17-10-2020 16.2 (15:40) 3 (00:00) 9.6 4.17 (16:30) 1.94 (16:30) 0 0 0 0 0
16-10-2020 15 (16:00) 0.7 (00:00) 7.8 5.28 (15:30) 2.5 (15:30) 0 0 0 0 0
15-10-2020 11.8 (15:00) 4.2 (00:00) 8 5.83 (16:50) 1.67 (16:50) 8.4 2.8 3.8 1.2 0.6
14-10-2020 10.7 (16:10) 7.2 (00:00) 8.9 6.67 (14:40) 2.5 (12:40) 11.2 2.2 5.6 2 1.4
13-10-2020 13 (01:10) 7.8 (00:00) 10.4 7.22 (20:20) 2.22 (01:10) 5.4 2.8 1.2 0.4 1
12-10-2020 17.2 (14:20) 3.1 (00:00) 10.2 4.44 (15:00) 1.94 (15:00) 0.4 0 0 0.2 0.2
11-10-2020 12.9 (15:20) 7.8 (00:00) 10.3 5.56 (16:50) 2.22 (15:40) 0.2 0.2 0 0 0
10-10-2020 13.3 (00:00) 9.5 (00:00) 11.4 4.72 (14:40) 1.94 (14:40) 0.4 0 0.2 0 0.2
09-10-2020 20.9 (15:40) 11.3 (00:00) 16.1 5.28 (15:00) 1.94 (13:00) 0 0 0 0 0
08-10-2020 21.8 (16:10) 10.8 (00:00) 16.3 5.56 (16:50) 2.22 (16:30) 0 0 0 0 0
07-10-2020 22.3 (15:40) 13.8 (00:00) 18 7.78 (01:10) 3.33 (01:40) 0.8 0 0.8 0 0
06-10-2020 22.2 (14:00) 14.1 (00:00) 18.2 10.83 (15:00) 4.17 (15:00) 0 0 0 0 0
05-10-2020 18.1 (15:20) 7.6 (00:00) 12.9 9.17 (20:00) 3.89 (20:00) 0.6 0.6 0 0 0
04-10-2020 13.4 (04:30) 7.8 (00:00) 10.6 13.33 (04:20) 4.72 (04:20) 13 1 2.8 7.6 1.6
03-10-2020 11.6 (19:40) 5.8 (00:00) 8.7 9.44 (09:40) 3.89 (11:00) 9.8 8.4 1.2 0.2 0
02-10-2020 15.6 (00:00) 5.3 (00:00) 10.5 17.78 (04:40) 6.39 (04:40) 47.4 25 10 4.8 7.6
01-10-2020 17.7 (15:30) 10.3 (00:00) 14 13.06 (22:30) 4.17 (03:30) 2.6 0.2 0.2 2.2 0
30-09-2020 23.1 (15:40) 6 (00:00) 14.6 5 (16:00) 2.22 (16:00) 0 0 0 0 0

Gráficas

Temp. máximas Temp. mínimas Temp. medias Precipitaciones Rachas de viento máximas Velocidades máximas media en intervalos de 10 minutos

Datos horarios

Fecha y hora oficial Temperatura (ºC) Velocidad del viento (km/h) Dirección del viento Racha (km/h) Dirección de racha Precipitación (mm) Presión (hPa) Tendencia (hPa) Humedad (%)
2020-10-29 23:00:00 4.2 2 Sudoeste 5 Sur 0 -- -- 100
2020-10-29 22:00:00 4.9 0 Calma -- -- 0 -- -- 100
2020-10-29 21:00:00 5.5 0 Calma -- -- 0 -- -- 99
2020-10-29 20:00:00 6.5 0 Calma 3 Sudeste 0 -- -- 97
2020-10-29 19:00:00 7.9 0 Calma -- -- 0 -- -- 95
2020-10-29 18:00:00 9.9 2 Sur 4 Sur 0 -- -- 90
2020-10-29 17:00:00 12.3 2 Sur 8 Sur 0 -- -- 82
2020-10-29 16:00:00 14.6 0 Calma 13 Noroeste 0 -- -- 73
2020-10-29 15:00:00 17.8 5 Noroeste 17 Noroeste 0 -- -- 59
2020-10-29 14:00:00 17.4 5 Norte 17 Noroeste 0 -- -- 63
2020-10-29 13:00:00 15.6 7 Noroeste 20 Noroeste 0 -- -- 62
2020-10-29 12:00:00 12 2 Nordeste 4 Nordeste 0 -- -- 75
2020-10-29 11:00:00 6.6 0 Calma -- -- 0 -- -- 100
2020-10-29 10:00:00 2.5 0 Calma -- -- 0 -- -- 100
2020-10-29 09:00:00 2 0 Calma 4 Sur 0 -- -- 100
2020-10-29 08:00:00 2.1 0 Calma 5 Sur 0 -- -- 100
2020-10-29 07:00:00 2.6 2 Sur 5 Sur 0 -- -- 100
2020-10-29 06:00:00 2.7 0 Calma -- -- 0 -- -- 100
2020-10-29 05:00:00 2.8 0 Calma -- -- 0 -- -- 100
2020-10-29 04:00:00 2.9 0 Calma -- -- 0 -- -- 100
2020-10-29 03:00:00 3.2 0 Calma -- -- 0 -- -- 100
2020-10-29 02:00:00 3.4 0 Calma -- -- 0 -- -- 100
2020-10-29 01:00:00 3.5 0 Calma -- -- 0 -- -- 100
2020-10-29 00:00:00 4 0 Calma 5 Sudoeste 0 -- -- 100
2020-10-28 23:00:00 4.6 0 Calma 5 Sur 0 -- -- 100
2020-10-28 22:00:00 5.1 0 Calma -- -- 0 -- -- 99
2020-10-28 21:00:00 5.8 0 Calma -- -- 0 -- -- 98
2020-10-28 20:00:00 6.6 0 Calma -- -- 0 -- -- 96
2020-10-28 19:00:00 8.2 0 Calma 4 Sur 0 -- -- 92
2020-10-28 18:00:00 10.1 0 Calma 7 Sur 0 -- -- 86
2020-10-28 17:00:00 12.5 4 Sur 17 Norte 0 -- -- 73
2020-10-28 16:00:00 14.7 8 Norte 18 Norte 0 -- -- 62
2020-10-28 15:00:00 17.4 4 Norte 19 Norte 0 -- -- 49
2020-10-28 14:00:00 16.9 7 Norte 19 Norte 0 -- -- 61
2020-10-28 13:00:00 16.4 7 Norte 15 Norte 0 -- -- 64
2020-10-28 12:00:00 14.1 4 Norte 9 Norte 0 -- -- 72
2020-10-28 11:00:00 9 2 Norte 8 Norte 0 -- -- 100
2020-10-28 10:00:00 5.3 0 Calma 4 Sudeste 0 -- -- 100
2020-10-28 09:00:00 4.7 2 Sur 5 Sudeste 0 -- -- 100
2020-10-28 08:00:00 4.7 0 Calma 5 Sudoeste 0 -- -- 100
2020-10-28 07:00:00 5.5 2 Sudoeste 6 Sudoeste 0 -- -- 100
2020-10-28 06:00:00 6.2 0 Calma 5 Sudeste 0 -- -- 99
2020-10-28 05:00:00 7 2 Sudeste 7 Este 0 -- -- 98
2020-10-28 04:00:00 8.1 3 Sur 6 Sur 0 -- -- 97
2020-10-28 03:00:00 9.8 2 Sudoeste 8 Sudeste 0 -- -- 95
2020-10-28 02:00:00 10.6 2 Sur 6 Sur 0 -- -- 93
2020-10-28 01:00:00 11.1 0 Calma 5 Sudeste 0 -- -- 91
2020-10-28 00:00:00 11.9 0 Calma 11 Sudoeste 0 -- -- 86
2020-10-27 23:00:00 13.6 5 Sur 17 Sur 0 -- -- 79
2020-10-27 22:00:00 14.1 6 Sur 21 Sudoeste 0 -- -- 77
2020-10-27 21:00:00 12.6 2 Este 13 Oeste 0 -- -- 90
2020-10-27 20:00:00 13.8 3 Sur 28 Sur 0 -- -- 81
2020-10-27 19:00:00 15.1 11 Sudoeste 31 Sudoeste 0 -- -- 68
2020-10-27 18:00:00 15 12 Sudoeste 27 Sudoeste 0 -- -- 68
2020-10-27 17:00:00 15.5 10 Sur 28 Sudoeste 0 -- -- 66
2020-10-27 16:00:00 15.9 9 Sudoeste 31 Sur 0 -- -- 67
2020-10-27 15:00:00 15.3 7 Sur 29 Sudoeste 0 -- -- 68
2020-10-27 14:00:00 15.9 12 Sur 25 Sudoeste 0 -- -- 67
2020-10-27 13:00:00 15.7 10 Sur 32 Sur 0 -- -- 65
2020-10-27 12:00:00 16.2 12 Sur 26 Sudeste 0 -- -- 64
2020-10-27 11:00:00 14 9 Sur 25 Sudoeste 0 -- -- 66
2020-10-27 10:00:00 12.8 12 Sudoeste 29 Sur 0 -- -- 72
2020-10-27 09:00:00 12.1 8 Sur 27 Sur 0 -- -- 69
2020-10-27 08:00:00 11.6 9 Sur 22 Sur 0 -- -- 68
2020-10-27 07:00:00 10.9 8 Sur 27 Sudeste 0 -- -- 70
2020-10-27 06:00:00 9.2 6 Norte 15 Sur 0 -- -- 81
2020-10-27 05:00:00 9.1 4 Sur 17 Sudoeste 0 -- -- 77
2020-10-27 04:00:00 7 0 Calma 5 Sudeste 0 -- -- 97
2020-10-27 03:00:00 6.7 0 Calma -- -- 0 -- -- 97
2020-10-27 02:00:00 6.6 0 Calma 6 Sudoeste 0 -- -- 96
2020-10-27 01:00:00 6.2 3 Noroeste 8 Oeste 0 -- -- 96
2020-10-27 00:00:00 6.2 4 Sur 8 Oeste 0 -- -- 93
2020-10-26 23:00:00 7.1 3 Oeste 8 Noroeste 0 -- -- 89
2020-10-26 22:00:00 9 0 Calma 29 Este 0 -- -- 77
2020-10-26 21:00:00 9.3 6 Nordeste 30 Este 0 -- -- 72
2020-10-26 20:00:00 9.2 10 Nordeste 24 Nordeste 0 -- -- 71
2020-10-26 19:00:00 9.1 8 Nordeste 37 Este 0 -- -- 71
2020-10-26 18:00:00 9.1 12 Nordeste 36 Este 0.2 -- -- 69
2020-10-26 17:00:00 9.9 9 Este 26 Este 0 -- -- 67
2020-10-26 16:00:00 10 6 Nordeste 23 Nordeste 0 -- -- 69
2020-10-26 15:00:00 11.3 13 Este 30 Este 0 -- -- 60
2020-10-26 14:00:00 10.3 8 Este 28 Nordeste 0 -- -- 67
2020-10-26 13:00:00 9.9 10 Este 28 Este 0 -- -- 69
2020-10-26 12:00:00 9.8 8 Sur 26 Este 0 -- -- 69
2020-10-26 11:00:00 9.4 9 Este 19 Este 0 -- -- 68
2020-10-26 10:00:00 8.2 9 Nordeste 19 Norte 0 -- -- 70
2020-10-26 09:00:00 7.6 6 Nordeste 18 Sudeste 0 -- -- 79
2020-10-26 08:00:00 7.3 4 Nordeste 17 Este 0 -- -- 79
2020-10-26 07:00:00 6.8 8 Este 19 Sudeste 0 -- -- 74
2020-10-26 06:00:00 7.1 4 Sur 19 Este 0 -- -- 77
2020-10-26 05:00:00 6.9 8 Nordeste 33 Este 0 -- -- 77
2020-10-26 04:00:00 6.7 12 Este 27 Este 0 -- -- 78
2020-10-26 03:00:00 4.9 2 Nordeste 8 Sudoeste 0 -- -- 98
2020-10-26 02:00:00 5.6 2 Sudeste 8 Oeste 0.2 -- -- 97
2020-10-26 01:00:00 6.3 5 Nordeste 26 Este 0 -- -- 84
2020-10-26 00:00:00 6.1 6 Este 15 Sudeste 0.2 -- -- 89
2020-10-25 23:00:00 5.8 4 Noroeste 11 Oeste 0 -- -- 99
2020-10-25 22:00:00 5.4 4 Este 9 Este 0 -- -- 100
2020-10-25 21:00:00 5.3 4 Norte 9 Este 0.4 -- -- 100
2020-10-25 20:00:00 4.9 4 Sur 9 Oeste 0 -- -- 98
2020-10-25 19:00:00 5.4 2 Norte 13 Sur 0.4 -- -- 95
2020-10-25 18:00:00 6.3 4 Nordeste 22 Nordeste 3.2 -- -- 88
2020-10-25 17:00:00 8.8 4 Norte 38 Nordeste 0.2 -- -- 84
2020-10-25 16:00:00 9.4 12 Nordeste 41 Nordeste 0.2 -- -- 71
2020-10-25 15:00:00 10.2 5 Sudeste 21 Este 0.6 -- -- 84
2020-10-25 14:00:00 10.2 2 Noroeste 29 Sudeste 0.6 -- -- 90
2020-10-25 13:00:00 10.2 4 Sur 16 Noroeste 1.2 -- -- 95
2020-10-25 12:00:00 10.7 5 Norte 13 Nordeste 1.2 -- -- 93
2020-10-25 11:00:00 10.8 2 Nordeste 9 Este 0.2 -- -- 100
2020-10-25 10:00:00 10.2 4 Sudeste 8 Sudeste 0.8 -- -- 100
2020-10-25 09:00:00 9.8 4 Noroeste 12 Oeste 0.2 -- -- 99
2020-10-25 08:00:00 10.7 3 Sudoeste 26 Sudeste 0.6 -- -- 92
2020-10-25 07:00:00 11 5 Sur 9 Este 3 -- -- 100
2020-10-25 06:00:00 11.1 2 Norte 6 Sudoeste 4.8 -- -- 100
2020-10-25 05:00:00 11.3 0 Calma 6 Norte 6 -- -- 99
2020-10-25 04:00:00 12.5 3 Noroeste 30 Sudeste 5.2 -- -- 91
2020-10-25 03:00:00 14 12 Sur 36 Sudeste 2.2 -- -- 78
2020-10-25 02:00:00 13.6 13 Sur 35 Sudoeste 1.6 -- -- 77
2020-10-25 01:00:00 15.5 17 Sur 55 Sudeste 0.2 -- -- 69
2020-10-25 00:00:00 16.1 18 Sudeste 61 Sudeste 0 -- -- 60
2020-10-24 23:00:00 16.1 23 Sudeste 56 Sudeste 0 -- -- 62
2020-10-24 22:00:00 16.2 31 Sudeste 71 Sudeste 0 -- -- 62
2020-10-24 21:00:00 16 18 Sudeste 62 Sudeste 0 -- -- 60
2020-10-24 20:00:00 15.7 23 Sudeste 56 Sudeste 0 -- -- 59
2020-10-24 19:00:00 15.7 20 Sudeste 50 Sudeste 0 -- -- 58
2020-10-24 18:00:00 15.8 17 Sudeste 54 Sudeste 0 -- -- 59
2020-10-24 17:00:00 16.1 19 Sudeste 53 Sudeste 0 -- -- 59
2020-10-24 16:00:00 15.8 13 Sur 55 Sudoeste 0 -- -- 62
2020-10-24 15:00:00 16.1 10 Sur 41 Sur 0 -- -- 57
2020-10-24 14:00:00 15.8 17 Sudeste 50 Sudeste 0 -- -- 57
2020-10-24 13:00:00 15.9 14 Sudeste 52 Este 0 -- -- 60
2020-10-24 12:00:00 14.8 7 Sur 22 Sudoeste 0 -- -- 63
2020-10-24 11:00:00 13.3 8 Sur 23 Sur 0 -- -- 69
2020-10-24 10:00:00 12.4 7 Sudoeste 24 Sudoeste 0 -- -- 73
2020-10-24 09:00:00 11.7 6 Sur 26 Sudoeste 0 -- -- 75
2020-10-24 08:00:00 11.7 6 Sur 29 Sudoeste 0 -- -- 74
2020-10-24 07:00:00 8.4 4 Sur 17 Sur 0 -- -- 87
2020-10-24 06:00:00 9.4 2 Sur 18 Sur 0 -- -- 80
2020-10-24 05:00:00 10.5 9 Sur 26 Sur 0 -- -- 73
2020-10-24 04:00:00 5.9 4 Noroeste 10 Nordeste 0 -- -- 98
2020-10-24 03:00:00 6.4 0 Calma 16 Sudeste 0 -- -- 95
2020-10-24 02:00:00 6.3 4 Sudoeste 14 Sudoeste 0 -- -- 98
2020-10-24 01:00:00 5.8 0 Calma 5 Sur 0 -- -- 100
2020-10-24 00:00:00 5.6 2 Norte 5 Sur 0 -- -- 99
2020-10-23 23:00:00 6 2 Sudeste 5 Sudeste 0 -- -- 99
2020-10-23 22:00:00 6.5 0 Calma 6 Oeste 0 -- -- 96
2020-10-23 21:00:00 7.5 0 Calma 4 Sur 0 -- -- 93
2020-10-23 20:00:00 9.2 0 Calma 5 Sudeste 0 -- -- 87
2020-10-23 19:00:00 11.7 0 Calma 14 Sur 0 -- -- 77
2020-10-23 18:00:00 14.3 5 Sur 15 Sur 0 -- -- 67
2020-10-23 17:00:00 15.4 5 Sudoeste 15 Sur 0 -- -- 62
2020-10-23 16:00:00 17.3 6 Sudoeste 19 Sur 0 -- -- 53
2020-10-23 15:00:00 15.3 9 Norte 19 Noroeste 0 -- -- 63
2020-10-23 14:00:00 15.2 4 Nordeste 14 Norte 0 -- -- 62
2020-10-23 13:00:00 13.2 2 Este 6 Sudeste 0 -- -- 74
2020-10-23 12:00:00 10.5 2 Noroeste 6 Nordeste 0 -- -- 99
2020-10-23 11:00:00 8.7 0 Calma 5 Este 0.4 -- -- 100
2020-10-23 10:00:00 7.7 2 Sur 10 Noroeste 0.2 -- -- 100
2020-10-23 09:00:00 7.2 0 Calma 6 Este 0 -- -- 100
2020-10-23 08:00:00 6.9 0 Calma 4 Noroeste 0 -- -- 100
2020-10-23 07:00:00 6.8 4 Sudoeste 7 Este 0 -- -- 100
2020-10-23 06:00:00 6.6 0 Calma -- -- 0 -- -- 100
2020-10-23 05:00:00 6.7 0 Calma -- -- 0 -- -- 100
2020-10-23 04:00:00 7.5 0 Calma -- -- 0 -- -- 100
2020-10-23 03:00:00 7 0 Calma -- -- 0 -- -- 100
2020-10-23 02:00:00 6.8 0 Calma 5 Sur 0 -- -- 100
2020-10-23 01:00:00 7.2 2 Sudoeste 5 Sur 0 -- -- 99
2020-10-23 00:00:00 8.2 0 Calma 7 Oeste 0.2 -- -- 99
2020-10-22 23:00:00 8.4 0 Calma -- -- 0 -- -- 98
2020-10-22 22:00:00 7.9 0 Calma 5 Oeste 0 -- -- 96
2020-10-22 21:00:00 8.7 3 Sur 8 Sudoeste 0 -- -- 92
2020-10-22 20:00:00 10.7 3 Sur 17 Oeste 0 -- -- 85
2020-10-22 19:00:00 13.3 4 Oeste 16 Sudoeste 0 -- -- 69
2020-10-22 18:00:00 15.4 3 Sudoeste 15 Sudoeste 0 -- -- 62
2020-10-22 17:00:00 16.1 7 Sur 18 Sur 0 -- -- 58
2020-10-22 16:00:00 17.6 6 Sudoeste 20 Sur 0 -- -- 59
2020-10-22 15:00:00 17 8 Sudoeste 20 Sur 0 -- -- 62
2020-10-22 14:00:00 14.9 4 Sudoeste 19 Sudeste 0.2 -- -- 68
2020-10-22 13:00:00 14.7 7 Sur 26 Sur 0 -- -- 72
2020-10-22 12:00:00 14 5 Sur 20 Sur 0 -- -- 73
2020-10-22 11:00:00 12.9 8 Sur 27 Sudoeste 0 -- -- 74
2020-10-22 10:00:00 11.8 10 Sur 28 Sur 0 -- -- 77
2020-10-22 09:00:00 9.3 5 Sur 18 Sudoeste 0 -- -- 94
2020-10-22 08:00:00 7.9 3 Norte 8 Oeste 0 -- -- 99
2020-10-22 07:00:00 8.7 2 Sur 8 Sudoeste 0 -- -- 99
2020-10-22 06:00:00 8.8 2 Norte 10 Sudoeste 0 -- -- 100
2020-10-22 05:00:00 7.6 2 Norte 11 Sur 0 -- -- 100
2020-10-22 04:00:00 7.8 0 Calma 10 Este 0 -- -- 100
2020-10-22 03:00:00 7.4 3 Noroeste 8 Oeste 0 -- -- 100
2020-10-22 02:00:00 7.8 2 Noroeste 8 Este 0 -- -- 100
2020-10-22 01:00:00 8.1 2 Este 6 Norte 0.2 -- -- 100
2020-10-22 00:00:00 9.1 0 Calma 5 Oeste 0 -- -- 99
2020-10-21 23:00:00 10 0 Calma 12 Sudoeste 1 -- -- 98
2020-10-21 22:00:00 9.4 4 Nordeste 14 Sudeste 0 -- -- 97
2020-10-21 21:00:00 9.2 3 Norte 10 Oeste 0 -- -- 97
2020-10-21 20:00:00 11.1 0 Calma 6 Sudoeste 0.8 -- -- 94
2020-10-21 19:00:00 13.2 5 Sudoeste 27 Sudeste 0.2 -- -- 80
2020-10-21 18:00:00 14.4 11 Sudeste 32 Sudeste 0 -- -- 64
2020-10-21 17:00:00 15.4 10 Sudeste 28 Este 0 -- -- 59
2020-10-21 16:00:00 16.3 6 Sudoeste 17 Oeste 0.2 -- -- 69
2020-10-21 15:00:00 15.5 8 Sur 28 Sur 0.2 -- -- 65
2020-10-21 14:00:00 15.9 8 Sur 28 Sudeste 0 -- -- 64
2020-10-21 13:00:00 15.2 9 Sudeste 28 Sudeste 0 -- -- 66
2020-10-21 12:00:00 13.8 3 Oeste 17 Nordeste 0 -- -- 79
2020-10-21 11:00:00 11.9 0 Calma 8 Sudoeste 0.2 -- -- 97
2020-10-21 10:00:00 11.4 0 Calma 13 Sudeste 0 -- -- 95
2020-10-21 09:00:00 11.5 0 Calma 21 Sudeste 0 -- -- 89
2020-10-21 08:00:00 12.2 7 Sur 22 Este 0 -- -- 80
2020-10-21 07:00:00 13.4 8 Sur 32 Sudeste 0 -- -- 74
2020-10-21 06:00:00 11.9 3 Noroeste 36 Este 1.4 -- -- 92
2020-10-21 05:00:00 11.2 0 Calma 24 Este 2.2 -- -- 98
2020-10-21 04:00:00 10.7 4 Norte 9 Este 0.4 -- -- 100
2020-10-21 03:00:00 11.1 0 Calma 5 Sudoeste 1.4 -- -- 100
2020-10-21 02:00:00 11.7 2 Norte 27 Sudeste 0.8 -- -- 96
2020-10-21 01:00:00 11.1 3 Noroeste 13 Sudoeste 0.6 -- -- 100
2020-10-21 00:00:00 11.2 0 Calma 9 Sudoeste 1.6 -- -- 100
2020-10-20 23:00:00 11.2 0 Calma 4 Sudoeste 1.4 -- -- 100
2020-10-20 22:00:00 11.4 2 Sur 6 Noroeste 1 -- -- 100
2020-10-20 21:00:00 11.4 0 Calma 5 Sur 1.4 -- -- 100
2020-10-20 20:00:00 11.5 0 Calma 9 Norte 3.4 -- -- 99
2020-10-20 19:00:00 11.8 3 Noroeste 9 Noroeste 5.2 -- -- 99
2020-10-20 18:00:00 12 2 Noroeste 7 Nordeste 2.8 -- -- 98
2020-10-20 17:00:00 12.2 3 Norte 22 Sur 3.4 -- -- 95
2020-10-20 16:00:00 14 5 Sudoeste 31 Sudoeste 1 -- -- 83
2020-10-20 15:00:00 15.6 9 Sur 27 Sudeste 0 -- -- 71
2020-10-20 14:00:00 15.9 9 Sur 32 Sudoeste 0 -- -- 68
2020-10-20 13:00:00 17.3 10 Sur 32 Sudoeste 0 -- -- 62
2020-10-20 12:00:00 17 15 Sur 44 Sur 0 -- -- 63
2020-10-20 11:00:00 16.3 13 Sur 37 Sudoeste 0 -- -- 64
2020-10-20 10:00:00 15.5 10 Sur 29 Sur 0 -- -- 67
2020-10-20 09:00:00 15.5 10 Sur 33 Sur 0 -- -- 66
2020-10-20 08:00:00 15.7 17 Sur 44 Sudoeste 0 -- -- 66
2020-10-20 07:00:00 15.8 13 Sur 37 Sur 0 -- -- 66
2020-10-20 06:00:00 15.6 11 Sur 31 Sudoeste 0 -- -- 67
2020-10-20 05:00:00 15.6 14 Sur 38 Sudeste 0 -- -- 67
2020-10-20 04:00:00 15.9 14 Sur 41 Sur 0 -- -- 67
2020-10-20 03:00:00 15.3 10 Sudoeste 30 Sudoeste 0 -- -- 71
2020-10-20 02:00:00 14.9 12 Sudoeste 35 Sudoeste 0 -- -- 74
2020-10-20 01:00:00 15.1 15 Sur 44 Sur 0 -- -- 72
2020-10-20 00:00:00 15 14 Sur 53 Sudoeste 0 -- -- 72
2020-10-19 23:00:00 15 19 Sur 47 Este 0.2 -- -- 71
2020-10-19 22:00:00 13.4 9 Sudoeste 40 Sur 1.4 -- -- 84
2020-10-19 21:00:00 13.8 16 Sur 41 Sur 1.6 -- -- 78
2020-10-19 20:00:00 13.5 12 Sur 49 Sur 2.4 -- -- 80
2020-10-19 19:00:00 14.9 16 Sur 50 Sudoeste 1 -- -- 72
2020-10-19 18:00:00 18 21 Sur 53 Sur 0 -- -- 49
2020-10-19 17:00:00 19.2 17 Sur 45 Sudoeste 0 -- -- 42
2020-10-19 16:00:00 19.3 14 Sur 44 Sudoeste 0 -- -- 44
2020-10-19 15:00:00 20.1 19 Sur 46 Sudoeste 0 -- -- 41
2020-10-19 14:00:00 18.6 10 Sur 49 Sur 0 -- -- 47
2020-10-19 13:00:00 19.7 16 Sur 55 Sur 0 -- -- 42
2020-10-19 12:00:00 19.3 19 Sur 44 Oeste 0 -- -- 39
2020-10-19 11:00:00 17.3 14 Sur 48 Sudoeste 0 -- -- 42
2020-10-19 10:00:00 16.7 12 Sur 44 Sudoeste 0 -- -- 41
2020-10-19 09:00:00 16.7 17 Sur 51 Sur 0 -- -- 42
2020-10-19 08:00:00 17.2 20 Sur 50 Sudoeste 0 -- -- 41
2020-10-19 07:00:00 16.4 12 Sur 35 Sudoeste 0 -- -- 47
2020-10-19 06:00:00 16 11 Sur 28 Sudoeste 0 -- -- 49
2020-10-19 05:00:00 12.3 3 Norte 22 Sudoeste 0 -- -- 74
2020-10-19 04:00:00 12.5 3 Norte 18 Sudoeste 0 -- -- 78
2020-10-19 03:00:00 10.7 4 Norte 14 Norte 0 -- -- 86
2020-10-19 02:00:00 9.1 3 Norte 9 Sudoeste 0 -- -- 98
2020-10-19 01:00:00 8.7 2 Norte 9 Sudoeste 0 -- -- 99
2020-10-19 00:00:00 8.4 3 Sudoeste 8 Sudeste 0 -- -- 99
2020-10-18 23:00:00 8.6 0 Calma 6 Sudeste 0 -- -- 98
2020-10-18 22:00:00 8.8 0 Calma 5 Sudeste 0 -- -- 97
2020-10-18 21:00:00 9.6 2 Sudoeste 5 Oeste 0 -- -- 96
2020-10-18 20:00:00 11.3 0 Calma 4 Sur 0 -- -- 93
2020-10-18 19:00:00 13.9 0 Calma 4 Sur 0 -- -- 85
2020-10-18 18:00:00 17.2 0 Calma 12 Norte 0 -- -- 74
2020-10-18 17:00:00 17.8 4 Norte 18 Noroeste 0 -- -- 65
2020-10-18 16:00:00 20.4 6 Norte 19 Nordeste 0 -- -- 56
2020-10-18 15:00:00 19.5 0 Calma 12 Sudoeste 0 -- -- 73
2020-10-18 14:00:00 20.5 5 Sur 17 Sur 0 -- -- 51
2020-10-18 13:00:00 18 5 Sur 17 Sur 0 -- -- 61
2020-10-18 12:00:00 10.3 0 Calma 2 Oeste 0 -- -- 100
2020-10-18 11:00:00 5.3 0 Calma 5 Sudoeste 0 -- -- 100
2020-10-18 10:00:00 4.8 0 Calma 6 Sudoeste 0 -- -- 100
2020-10-18 09:00:00 4.2 0 Calma 4 Sudoeste 0 -- -- 100
2020-10-18 08:00:00 4.5 0 Calma 6 Este 0 -- -- 100
2020-10-18 07:00:00 4.7 0 Calma 6 Sudeste 0 -- -- 100
2020-10-18 06:00:00 4.6 0 Calma 6 Sudeste 0 -- -- 100
2020-10-18 05:00:00 4.7 0 Calma 6 Oeste 0 -- -- 100
2020-10-18 04:00:00 4.4 0 Calma 6 Este 0 -- -- 100
2020-10-18 03:00:00 4.4 0 Calma 5 Este 0 -- -- 100
2020-10-18 02:00:00 4.5 0 Calma 4 Sudeste 0 -- -- 100
2020-10-18 01:00:00 4.8 0 Calma -- -- 0 -- -- 100
2020-10-18 00:00:00 5.3 0 Calma -- -- 0 -- -- 100
2020-10-17 23:00:00 5.9 0 Calma -- -- 0 -- -- 100
2020-10-17 22:00:00 6.6 0 Calma -- -- 0 -- -- 99
2020-10-17 21:00:00 7.8 0 Calma -- -- 0 -- -- 97
2020-10-17 20:00:00 9.6 0 Calma -- -- 0 -- -- 94
2020-10-17 19:00:00 12.3 0 Calma -- -- 0 -- -- 91
2020-10-17 18:00:00 13.2 0 Calma 12 Noroeste 0 -- -- 86
2020-10-17 17:00:00 14.7 5 Noroeste 15 Norte 0 -- -- 75
2020-10-17 16:00:00 15.9 6 Norte 14 Norte 0 -- -- 74
2020-10-17 15:00:00 15.1 0 Calma -- -- 0 -- -- 63
2020-10-17 14:00:00 13.7 0 Calma -- -- 0 -- -- 67
2020-10-17 13:00:00 11.9 0 Calma 0 Calma 0 -- -- 81
2020-10-17 12:00:00 9.1 0 Calma 4 Noroeste 0 -- -- 100
2020-10-17 11:00:00 7.1 2 Norte 5 Este 0 -- -- 100
2020-10-17 10:00:00 4.2 0 Calma 4 Este 0 -- -- 100
2020-10-17 09:00:00 3.1 0 Calma 6 Sudoeste 0 -- -- 100
2020-10-17 08:00:00 3 3 Sur 6 Este 0 -- -- 100
2020-10-17 07:00:00 3.1 2 Sudoeste 7 Sudoeste 0 -- -- 100
2020-10-17 06:00:00 3.6 2 Sudoeste 6 Sur 0 -- -- 100
2020-10-17 05:00:00 4.1 0 Calma 5 Sudeste 0 -- -- 100
2020-10-17 04:00:00 4.1 0 Calma 4 Oeste 0 -- -- 100
2020-10-17 03:00:00 3.7 0 Calma 5 Sudeste 0 -- -- 100
2020-10-17 02:00:00 3.6 0 Calma -- -- 0 -- -- 100
2020-10-17 01:00:00 3.6 0 Calma -- -- 0 -- -- 100
2020-10-17 00:00:00 3.8 0 Calma 4 Oeste 0 -- -- 100
2020-10-16 23:00:00 4.1 0 Calma -- -- 0 -- -- 100
2020-10-16 22:00:00 4.6 0 Calma -- -- 0 -- -- 99
2020-10-16 21:00:00 5.6 0 Calma -- -- 0 -- -- 97
2020-10-16 20:00:00 7 0 Calma 3 Oeste 0 -- -- 95
2020-10-16 19:00:00 9 0 Calma 7 Oeste 0 -- -- 90
2020-10-16 18:00:00 11 3 Noroeste 17 Nordeste 0 -- -- 80
2020-10-16 17:00:00 12.6 6 Norte 17 Norte 0 -- -- 69
2020-10-16 16:00:00 15 8 Norte 19 Nordeste 0 -- -- 63
2020-10-16 15:00:00 14.5 7 Norte 17 Noroeste 0 -- -- 59
2020-10-16 14:00:00 13.3 4 Norte 10 Norte 0 -- -- 60
2020-10-16 13:00:00 9.6 2 Nordeste 5 Sudeste 0 -- -- 72
2020-10-16 12:00:00 5 0 Calma -- -- 0 -- -- 100
2020-10-16 11:00:00 1.3 0 Calma -- -- 0 -- -- 100
2020-10-16 10:00:00 0.9 0 Calma -- -- 0 -- -- 100
2020-10-16 09:00:00 0.7 0 Calma -- -- 0 -- -- 100
2020-10-16 08:00:00 0.8 0 Calma -- -- 0 -- -- 100
2020-10-16 07:00:00 0.8 0 Calma -- -- 0 -- -- 100
2020-10-16 06:00:00 1 0 Calma -- -- 0 -- -- 100
2020-10-16 05:00:00 1.2 0 Calma -- -- 0 -- -- 100
2020-10-16 04:00:00 1.6 0 Calma -- -- 0 -- -- 100
2020-10-16 03:00:00 1.9 0 Calma -- -- 0 -- -- 100
2020-10-16 02:00:00 2.4 0 Calma 4 Sur 0 -- -- 100
2020-10-16 01:00:00 3.1 0 Calma 4 Sur 0 -- -- 100
2020-10-16 00:00:00 4.2 0 Calma 5 Sur 0 -- -- 100
2020-10-15 23:00:00 5.2 0 Calma -- -- 0 -- -- 100
2020-10-15 22:00:00 5.5 0 Calma -- -- 0 -- -- 99
2020-10-15 21:00:00 6.8 0 Calma -- -- 0 -- -- 98
2020-10-15 20:00:00 7.6 0 Calma 3 Oeste 0 -- -- 98
2020-10-15 19:00:00 8.6 2 Sur 6 Noroeste 0.6 -- -- 96
2020-10-15 18:00:00 9.3 0 Calma 10 Noroeste 0.2 -- -- 93
2020-10-15 17:00:00 10.1 6 Norte 21 Nordeste 0 -- -- 81
2020-10-15 16:00:00 10.3 4 Noroeste 14 Norte 0.2 -- -- 86
2020-10-15 15:00:00 11.8 6 Norte 14 Nordeste 0 -- -- 77
2020-10-15 14:00:00 9.3 2 Norte 7 Nordeste 0.6 -- -- 97
2020-10-15 13:00:00 8.9 0 Calma 3 Nordeste 0.2 -- -- 96
2020-10-15 12:00:00 8 2 Norte 6 Nordeste 1.4 -- -- 100
2020-10-15 11:00:00 7.7 0 Calma -- -- 0.4 -- -- 100
2020-10-15 10:00:00 7.5 0 Calma 0 Calma 1.2 -- -- 100
2020-10-15 09:00:00 7.1 0 Calma -- -- 0.8 -- -- 100
2020-10-15 08:00:00 7 0 Calma -- -- 0 -- -- 100
2020-10-15 07:00:00 7.1 0 Calma 3 Sudeste 0 -- -- 100
2020-10-15 06:00:00 7.7 0 Calma -- -- 0.2 -- -- 100
2020-10-15 05:00:00 7.7 0 Calma -- -- 0.6 -- -- 100
2020-10-15 04:00:00 7.8 0 Calma -- -- 0.6 -- -- 100
2020-10-15 03:00:00 7.8 0 Calma 3 Sudoeste 0.4 -- -- 100
2020-10-15 02:00:00 7.9 0 Calma -- -- 0.8 -- -- 100
2020-10-15 01:00:00 7.9 0 Calma 3 Norte 0.2 -- -- 100
2020-10-15 00:00:00 8 0 Calma 3 Este 0 -- -- 100
2020-10-14 23:00:00 7.9 0 Calma 9 Norte 0 -- -- 100
2020-10-14 22:00:00 7.9 3 Norte 12 Norte 0.2 -- -- 100
2020-10-14 21:00:00 8.1 0 Calma 5 Noroeste 0.6 -- -- 99
2020-10-14 20:00:00 8.2 0 Calma 15 Nordeste 0.6 -- -- 98
2020-10-14 19:00:00 9.1 3 Norte 11 Norte 0 -- -- 95
2020-10-14 18:00:00 8.9 0 Calma 14 Nordeste 0 -- -- 93
2020-10-14 17:00:00 9.7 4 Norte 20 Nordeste 0.2 -- -- 90
2020-10-14 16:00:00 9.9 8 Norte 16 Norte 0 -- -- 91
2020-10-14 15:00:00 9.2 5 Norte 24 Norte 1.4 -- -- 95
2020-10-14 14:00:00 10.3 4 Norte 19 Este 0 -- -- 89
2020-10-14 13:00:00 9.5 7 Norte 23 Norte 0.4 -- -- 92
2020-10-14 12:00:00 8.9 5 Norte 20 Norte 0.6 -- -- 98
2020-10-14 11:00:00 8.2 4 Noroeste 9 Noroeste 0.2 -- -- 100
2020-10-14 10:00:00 7.5 0 Calma 5 Noroeste 1.4 -- -- 100
2020-10-14 09:00:00 7.2 2 Norte 9 Noroeste 1.6 -- -- 100
2020-10-14 08:00:00 7.3 4 Noroeste 13 Norte 1 -- -- 100
2020-10-14 07:00:00 7.2 5 Norte 15 Noroeste 0.8 -- -- 100
2020-10-14 06:00:00 7.4 4 Norte 21 Nordeste 0 -- -- 100
2020-10-14 05:00:00 7.4 6 Norte 15 Nordeste 1 -- -- 100
2020-10-14 04:00:00 7.5 2 Norte 7 Norte 0.4 -- -- 100
2020-10-14 03:00:00 7.5 4 Norte 18 Nordeste 0.4 -- -- 100
2020-10-14 02:00:00 7.6 5 Norte 11 Noroeste 0.2 -- -- 100
2020-10-14 01:00:00 7.7 2 Norte 11 Norte 0.2 -- -- 100
2020-10-14 00:00:00 7.8 2 Noroeste 13 Noroeste 0 -- -- 100
2020-10-13 23:00:00 7.9 2 Noroeste 14 Noroeste 0.2 -- -- 100
2020-10-13 22:00:00 8.1 3 Norte 13 Norte 0.4 -- -- 99
2020-10-13 21:00:00 8.1 5 Norte 26 Noroeste 0.4 -- -- 98
2020-10-13 20:00:00 9.2 3 Noroeste 10 Norte 0 -- -- 96
2020-10-13 19:00:00 9.6 3 Noroeste 14 Noroeste 0 -- -- 94
2020-10-13 18:00:00 10.5 4 Noroeste 21 Nordeste 0.2 -- -- 94
2020-10-13 17:00:00 11.7 7 Norte 17 Norte 0 -- -- 87
2020-10-13 16:00:00 12.6 4 Sur 13 Noroeste 0 -- -- 82
2020-10-13 15:00:00 10.9 4 Norte 17 Nordeste 0 -- -- 94
2020-10-13 14:00:00 11.2 5 Norte 19 Norte 0.2 -- -- 96
2020-10-13 13:00:00 11.6 6 Norte 17 Norte 0 -- -- 95
2020-10-13 12:00:00 11.7 5 Norte 15 Norte 0 -- -- 96
2020-10-13 11:00:00 11.3 3 Sudeste 11 Norte 0 -- -- 99
2020-10-13 10:00:00 -- -- -- -- -- -- -- -- --
2020-10-13 09:00:00 10.8 3 Sudoeste 16 Norte 0.4 -- -- 99
2020-10-13 08:00:00 11.6 7 Norte 23 Norte 0.2 -- -- 99
2020-10-13 07:00:00 12.3 5 Noroeste 23 Norte 0.2 -- -- 99
2020-10-13 06:00:00 12.6 7 Norte 22 Nordeste 2 -- -- 100
2020-10-13 05:00:00 12.3 0 Calma 5 Norte 0.2 -- -- 100
2020-10-13 04:00:00 12.8 3 Norte 6 Norte 0.2 -- -- 100
2020-10-13 03:00:00 12.8 0 Calma 11 Noroeste 0.4 -- -- 100
2020-10-13 02:00:00 12.7 3 Norte 19 Este 0 -- -- 100
2020-10-13 01:00:00 -- -- -- -- -- -- -- -- --
2020-10-13 00:00:00 11.8 0 Calma -- -- 0 -- -- 100
2020-10-12 23:00:00 12 0 Calma -- -- 0 -- -- 100
2020-10-12 22:00:00 12.4 0 Calma 0 Calma 0 -- -- 100
2020-10-12 21:00:00 12.7 0 Calma 0 Calma 0 -- -- 99
2020-10-12 20:00:00 13.1 0 Calma -- -- 0 -- -- 98
2020-10-12 19:00:00 13.6 0 Calma -- -- 0.2 -- -- 95
2020-10-12 18:00:00 -- -- -- -- -- -- -- -- --
2020-10-12 17:00:00 14.3 0 Calma 10 Noroeste 0.2 -- -- 88
2020-10-12 16:00:00 15.1 4 Norte 13 Nordeste 0 -- -- 81
2020-10-12 15:00:00 16.2 7 Norte 16 Norte 0 -- -- 75
2020-10-12 14:00:00 17 5 Norte 13 Nordeste 0 -- -- 71
2020-10-12 13:00:00 14.8 0 Calma 4 Nordeste 0 -- -- 69
2020-10-12 12:00:00 10.8 0 Calma 5 Este 0 -- -- 80
2020-10-12 11:00:00 7.5 0 Calma -- -- 0 -- -- 96
2020-10-12 10:00:00 5.6 0 Calma 3 Sur 0 -- -- 100
2020-10-12 09:00:00 3.9 0 Calma 5 Oeste 0 -- -- 100
2020-10-12 08:00:00 3.1 0 Calma -- -- 0 -- -- 100
2020-10-12 07:00:00 3.8 0 Calma -- -- 0 -- -- 99
2020-10-12 06:00:00 4.7 0 Calma -- -- 0 -- -- 98
2020-10-12 05:00:00 5.9 0 Calma -- -- 0 -- -- 98
2020-10-12 04:00:00 -- -- -- -- -- -- -- -- --
2020-10-12 03:00:00 7.6 0 Calma -- -- 0 -- -- 98
2020-10-12 02:00:00 7.8 0 Calma -- -- 0 -- -- 98
2020-10-12 01:00:00 7.8 0 Calma 10 Noroeste 0 -- -- 97
2020-10-12 00:00:00 8.3 4 Norte 10 Noroeste 0 -- -- 91
2020-10-11 23:00:00 8.7 0 Calma 5 Norte 0 -- -- 89
2020-10-11 22:00:00 8.9 2 Noroeste 10 Nordeste 0 -- -- 86
2020-10-11 21:00:00 -- -- -- -- -- -- -- -- --
2020-10-11 20:00:00 -- -- -- -- -- -- -- -- --
2020-10-11 19:00:00 10.2 3 Noroeste 15 Norte 0 -- -- 77
2020-10-11 18:00:00 11.2 4 Norte 14 Nordeste 0 -- -- 74
2020-10-11 17:00:00 11.9 5 Norte 20 Nordeste 0 -- -- 72
2020-10-11 16:00:00 12.9 5 Norte 18 Norte 0 -- -- 63
2020-10-11 15:00:00 12.4 6 Norte 19 Norte 0 -- -- 68
2020-10-11 14:00:00 11.4 6 Norte 17 Norte 0 -- -- 73
2020-10-11 13:00:00 10.9 5 Norte 16 Norte 0 -- -- 77
2020-10-11 12:00:00 10.4 3 Norte 10 Norte 0 -- -- 83
2020-10-11 11:00:00 9.1 3 Norte 10 Norte 0 -- -- 86
2020-10-11 10:00:00 8.2 0 Calma 6 Norte 0 -- -- 97
2020-10-11 09:00:00 7.8 0 Calma 4 Norte 0 -- -- 99
2020-10-11 08:00:00 7.8 0 Calma 3 Nordeste 0 -- -- 98
2020-10-11 07:00:00 7.8 0 Calma 5 Norte 0 -- -- 99
2020-10-11 06:00:00 7.9 0 Calma 0 Calma 0 -- -- 98
2020-10-11 05:00:00 8.1 0 Calma 4 Sudoeste 0 -- -- 97
2020-10-11 04:00:00 8.3 0 Calma 8 Noroeste 0 -- -- 95
2020-10-11 03:00:00 8.5 3 Noroeste 13 Norte 0 -- -- 96
2020-10-11 02:00:00 8.7 3 Norte 16 Nordeste 0.2 -- -- 96
2020-10-11 01:00:00 9.2 3 Norte 16 Nordeste 0 -- -- 95
2020-10-11 00:00:00 9.5 2 Noroeste 6 Noroeste 0.2 -- -- 96
2020-10-10 23:00:00 9.9 3 Noroeste 8 Noroeste 0 -- -- 96
2020-10-10 22:00:00 10 0 Calma 8 Norte 0 -- -- 94
2020-10-10 21:00:00 10.7 4 Norte 15 Nordeste 0 -- -- 90
2020-10-10 20:00:00 11 3 Norte 10 Norte 0 -- -- 89
2020-10-10 19:00:00 11.9 2 Norte 9 Nordeste 0 -- -- 87
2020-10-10 18:00:00 12.2 3 Norte 9 Noroeste 0 -- -- 87
2020-10-10 17:00:00 12.6 4 Norte 16 Nordeste 0 -- -- 82
2020-10-10 16:00:00 12.6 7 Norte 15 Noroeste 0 -- -- 85
2020-10-10 15:00:00 12.5 5 Norte 17 Nordeste 0 -- -- 89
2020-10-10 14:00:00 12.4 4 Norte 17 Norte 0 -- -- 85
2020-10-10 13:00:00 11.7 4 Norte 13 Norte 0 -- -- 92
2020-10-10 12:00:00 11.2 5 Norte 12 Norte 0.2 -- -- 94
2020-10-10 11:00:00 11.2 4 Norte 13 Norte 0 -- -- 93
2020-10-10 10:00:00 11.2 4 Norte 14 Nordeste 0 -- -- 94
2020-10-10 09:00:00 11.1 4 Norte 12 Noroeste 0 -- -- 97
2020-10-10 08:00:00 11.3 4 Noroeste 11 Noroeste 0 -- -- 96
2020-10-10 07:00:00 11.7 3 Noroeste 9 Noroeste 0 -- -- 97
2020-10-10 06:00:00 12.1 2 Norte 12 Nordeste 0 -- -- 96
2020-10-10 05:00:00 12.2 3 Noroeste 8 Noroeste 0 -- -- 96
2020-10-10 04:00:00 12.4 0 Calma 9 Noroeste 0 -- -- 95
2020-10-10 03:00:00 12.6 2 Noroeste 11 Norte 0 -- -- 93
2020-10-10 02:00:00 12.8 2 Noroeste 7 Noroeste 0 -- -- 92
2020-10-10 01:00:00 13.1 0 Calma 8 Norte 0 -- -- 90
2020-10-10 00:00:00 13.3 2 Norte 9 Noroeste 0 -- -- 88
2020-10-09 23:00:00 13.4 4 Noroeste 9 Noroeste 0 -- -- 90
2020-10-09 22:00:00 13.8 2 Noroeste 10 Norte 0 -- -- 90
2020-10-09 21:00:00 14.3 4 Norte 15 Nordeste 0 -- -- 90
2020-10-09 20:00:00 15.1 7 Norte 18 Nordeste 0 -- -- 87
2020-10-09 19:00:00 16.1 5 Norte 19 Nordeste 0 -- -- 84
2020-10-09 18:00:00 16.9 7 Norte 17 Nordeste 0 -- -- 81
2020-10-09 17:00:00 18.4 6 Norte 17 Nordeste 0 -- -- 76
2020-10-09 16:00:00 20.7 6 Norte 18 Norte 0 -- -- 69
2020-10-09 15:00:00 20.8 7 Norte 19 Nordeste 0 -- -- 68
2020-10-09 14:00:00 19.7 6 Norte 18 Noroeste 0 -- -- 71
2020-10-09 13:00:00 18.6 7 Norte 17 Norte 0 -- -- 72
2020-10-09 12:00:00 15.1 0 Calma 5 Norte 0 -- -- 84
2020-10-09 11:00:00 11.3 0 Calma 4 Sudeste 0 -- -- 94
2020-10-09 10:00:00 11.7 2 Sur 8 Sur 0 -- -- 90
2020-10-09 09:00:00 11.7 0 Calma 6 Sur 0 -- -- 91
2020-10-09 08:00:00 12.3 3 Sur 8 Sudeste 0 -- -- 92
2020-10-09 07:00:00 12.5 0 Calma 5 Sur 0 -- -- 96
2020-10-09 06:00:00 12.5 0 Calma 0 Calma 0 -- -- 98
2020-10-09 05:00:00 12.5 0 Calma -- -- 0 -- -- 97
2020-10-09 04:00:00 13.4 0 Calma 5 Sur 0 -- -- 93
2020-10-09 03:00:00 14.3 0 Calma 7 Sur 0 -- -- 92
2020-10-09 02:00:00 14.9 0 Calma 2 Sudoeste 0 -- -- 98
2020-10-09 01:00:00 15.1 0 Calma 4 Noroeste 0 -- -- 97
2020-10-09 00:00:00 15.3 0 Calma -- -- 0 -- -- 97
2020-10-08 23:00:00 15.5 0 Calma 5 Noroeste 0 -- -- 95
2020-10-08 22:00:00 15.6 0 Calma 8 Norte 0 -- -- 95
2020-10-08 21:00:00 15.3 3 Sudeste 5 Nordeste 0 -- -- 96
2020-10-08 20:00:00 15.9 2 Sur 8 Oeste 0 -- -- 91
2020-10-08 19:00:00 17.7 0 Calma 14 Norte 0 -- -- 84
2020-10-08 18:00:00 19.3 6 Norte 16 Norte 0 -- -- 75
2020-10-08 17:00:00 20.8 8 Norte 20 Norte 0 -- -- 69
2020-10-08 16:00:00 21.6 6 Noroeste 14 Noroeste 0 -- -- 67
2020-10-08 15:00:00 19 3 Noroeste 12 Norte 0 -- -- 78
2020-10-08 14:00:00 18 2 Norte 10 Norte 0 -- -- 79
2020-10-08 13:00:00 16.7 0 Calma 6 Noroeste 0 -- -- 83
2020-10-08 12:00:00 14.5 0 Calma 5 Norte 0 -- -- 90
2020-10-08 11:00:00 12 0 Calma 0 Calma 0 -- -- 98
2020-10-08 10:00:00 10.9 0 Calma 4 Sudoeste 0 -- -- 100
2020-10-08 09:00:00 11 2 Sur 4 Sur 0 -- -- 99
2020-10-08 08:00:00 11.7 0 Calma -- -- 0 -- -- 98
2020-10-08 07:00:00 12.1 0 Calma -- -- 0 -- -- 97
2020-10-08 06:00:00 12.3 0 Calma -- -- 0 -- -- 99
2020-10-08 05:00:00 12.2 0 Calma -- -- 0 -- -- 100
2020-10-08 04:00:00 12 0 Calma -- -- 0 -- -- 99
2020-10-08 03:00:00 12.7 0 Calma 3 Oeste 0 -- -- 94
2020-10-08 02:00:00 14 0 Calma 3 Oeste 0 -- -- 97
2020-10-08 01:00:00 14.1 0 Calma 8 Noroeste 0 -- -- 97
2020-10-08 00:00:00 14.3 3 Noroeste 8 Norte 0 -- -- 97
2020-10-07 23:00:00 14.6 2 Noroeste 7 Norte 0 -- -- 96
2020-10-07 22:00:00 14.7 3 Oeste 12 Noroeste 0 -- -- 96
2020-10-07 21:00:00 15 3 Noroeste 11 Norte 0 -- -- 95
2020-10-07 20:00:00 15.8 3 Noroeste 15 Noroeste 0 -- -- 91
2020-10-07 19:00:00 17 5 Noroeste 15 Norte 0 -- -- 88
2020-10-07 18:00:00 17.9 6 Norte 20 Nordeste 0 -- -- 83
2020-10-07 17:00:00 20.4 6 Norte 17 Norte 0 -- -- 72
2020-10-07 16:00:00 22.2 8 Norte 20 Nordeste 0 -- -- 65
2020-10-07 15:00:00 21.9 6 Norte 17 Noroeste 0 -- -- 64
2020-10-07 14:00:00 21.1 5 Norte 12 Norte 0 -- -- 69
2020-10-07 13:00:00 20.1 4 Norte 12 Nordeste 0 -- -- 68
2020-10-07 12:00:00 17.9 0 Calma 0 Calma 0 -- -- 87
2020-10-07 11:00:00 15.1 0 Calma -- -- 0 -- -- 100
2020-10-07 10:00:00 14.4 0 Calma -- -- 0 -- -- 100
2020-10-07 09:00:00 13.9 0 Calma -- -- 0 -- -- 100
2020-10-07 08:00:00 14.1 0 Calma -- -- 0.2 -- -- 100
2020-10-07 07:00:00 14.3 0 Calma -- -- 0.6 -- -- 98
2020-10-07 06:00:00 14.6 0 Calma 4 Nordeste 0 -- -- 95
2020-10-07 05:00:00 15.1 2 Norte 12 Este 0 -- -- 91
2020-10-07 04:00:00 15.4 3 Norte 7 Oeste 0 -- -- 89
2020-10-07 03:00:00 16.5 2 Norte 19 Nordeste 0 -- -- 82
2020-10-07 02:00:00 17.6 3 Nordeste 28 Nordeste 0 -- -- 74
2020-10-07 01:00:00 17.8 11 Este 21 Este 0 -- -- 72
2020-10-07 00:00:00 17.4 8 Nordeste 21 Este 0 -- -- 74
2020-10-06 23:00:00 16.5 7 Nordeste 16 Este 0 -- -- 75
2020-10-06 22:00:00 14.7 4 Sur 23 Nordeste 0 -- -- 78
2020-10-06 21:00:00 17.2 8 Nordeste 24 Este 0 -- -- 63
2020-10-06 20:00:00 18.1 7 Norte 28 Nordeste 0 -- -- 55
2020-10-06 19:00:00 18.8 8 Nordeste 24 Nordeste 0 -- -- 55
2020-10-06 18:00:00 19.6 7 Nordeste 27 Sudeste 0 -- -- 55
2020-10-06 17:00:00 20 13 Nordeste 36 Nordeste 0 -- -- 55
2020-10-06 16:00:00 20.6 13 Nordeste 32 Nordeste 0 -- -- 56
2020-10-06 15:00:00 20.9 15 Nordeste 39 Este 0 -- -- 55
2020-10-06 14:00:00 22.2 5 Norte 22 Norte 0 -- -- 59
2020-10-06 13:00:00 19.6 5 Sudoeste 23 Nordeste 0 -- -- 72
2020-10-06 12:00:00 19.2 11 Este 32 Este 0 -- -- 71
2020-10-06 11:00:00 17.6 4 Este 9 Sudeste 0 -- -- 87
2020-10-06 10:00:00 17.4 5 Sur 30 Este 0 -- -- 83
2020-10-06 09:00:00 17.1 12 Este 24 Este 0 -- -- 79
2020-10-06 08:00:00 16.1 10 Nordeste 22 Nordeste 0 -- -- 83
2020-10-06 07:00:00 14.3 2 Sur 8 Sudoeste 0 -- -- 95
2020-10-06 06:00:00 14.2 4 Sur 9 Norte 0 -- -- 94
2020-10-06 05:00:00 14.4 4 Sudeste 10 Sudoeste 0 -- -- 91
2020-10-06 04:00:00 14.2 3 Sudeste 16 Sudeste 0 -- -- 91
2020-10-06 03:00:00 16.4 0 Calma 22 Nordeste 0 -- -- 81
2020-10-06 02:00:00 17.5 7 Nordeste 22 Nordeste 0 -- -- 74
2020-10-06 01:00:00 17.5 8 Nordeste 26 Este 0 -- -- 75
2020-10-06 00:00:00 17.4 6 Nordeste 24 Este 0 -- -- 74
2020-10-05 23:00:00 15.9 5 Nordeste 22 Nordeste 0 -- -- 81
2020-10-05 22:00:00 17.1 7 Este 26 Este 0 -- -- 76
2020-10-05 21:00:00 16.9 9 Nordeste 28 Este 0 -- -- 75
2020-10-05 20:00:00 16.6 14 Este 33 Este 0 -- -- 74
2020-10-05 19:00:00 16.4 5 Nordeste 24 Este 0 -- -- 74
2020-10-05 18:00:00 15.9 3 Norte 24 Nordeste 0 -- -- 74
2020-10-05 17:00:00 16.8 10 Nordeste 22 Este 0 -- -- 57
2020-10-05 16:00:00 17.8 6 Este 30 Nordeste 0 -- -- 52
2020-10-05 15:00:00 17.4 9 Nordeste 28 Este 0 -- -- 51
2020-10-05 14:00:00 16.1 10 Nordeste 24 Nordeste 0 -- -- 55
2020-10-05 13:00:00 15.4 10 Sudeste 21 Este 0 -- -- 52
2020-10-05 12:00:00 13.4 3 Nordeste 16 Este 0 -- -- 67
2020-10-05 11:00:00 11.2 8 Este 24 Este 0 -- -- 69
2020-10-05 10:00:00 9 4 Nordeste 15 Este 0 -- -- 93
2020-10-05 09:00:00 8.9 9 Nordeste 25 Nordeste 0 -- -- 85
2020-10-05 08:00:00 8.2 5 Norte 14 Este 0 -- -- 100
2020-10-05 07:00:00 8 3 Sur 10 Oeste 0 -- -- 100
2020-10-05 06:00:00 7.9 5 Noroeste 15 Sur 0 -- -- 100
2020-10-05 05:00:00 7.6 0 Calma 8 Oeste 0 -- -- 100
2020-10-05 04:00:00 8.1 3 Sur 10 Sudoeste 0.4 -- -- 100
2020-10-05 03:00:00 8.1 4 Oeste 16 Nordeste 0 -- -- 100
2020-10-05 02:00:00 7.9 4 Norte 9 Sudeste 0 -- -- 100
2020-10-05 01:00:00 7.9 2 Nordeste 9 Sudoeste 0.2 -- -- 100
2020-10-05 00:00:00 7.9 4 Sur 9 Sudoeste 0 -- -- 100
2020-10-04 23:00:00 7.9 4 Sur 9 Sudoeste 0.2 -- -- 100
2020-10-04 22:00:00 8.1 2 Noroeste 8 Sudeste 0.2 -- -- 100
2020-10-04 21:00:00 8.3 3 Sur 13 Nordeste 0.2 -- -- 98
2020-10-04 20:00:00 8.6 0 Calma 8 Noroeste 0.2 -- -- 99
2020-10-04 19:00:00 8.9 3 Noroeste 9 Noroeste 0.8 -- -- 97
2020-10-04 18:00:00 9.2 3 Sur 5 Sudoeste 1.4 -- -- 97
2020-10-04 17:00:00 9.4 2 Sudeste 7 Sudoeste 2 -- -- 96
2020-10-04 16:00:00 9.3 0 Calma 22 Este 1.4 -- -- 91
2020-10-04 15:00:00 9.7 5 Norte 22 Noroeste 0.8 -- -- 89
2020-10-04 14:00:00 11.5 7 Nordeste 29 Nordeste 0 -- -- 71
2020-10-04 13:00:00 10.5 17 Nordeste 35 Nordeste 2 -- -- 72
2020-10-04 12:00:00 9.5 5 Nordeste 22 Este 1 -- -- 86
2020-10-04 11:00:00 10.6 9 Nordeste 44 Nordeste 0 -- -- 70
2020-10-04 10:00:00 10.5 16 Nordeste 42 Nordeste 0.4 -- -- 67
2020-10-04 09:00:00 9.3 7 Nordeste 26 Norte 0.6 -- -- 82
2020-10-04 08:00:00 9.2 4 Norte 24 Sudeste 0.8 -- -- 88
2020-10-04 07:00:00 10 5 Norte 31 Nordeste 0 -- -- 85
2020-10-04 06:00:00 10.7 5 Norte 31 Sudeste 1 -- -- 91
2020-10-04 05:00:00 13.3 13 Sudeste 48 Nordeste 0 -- -- 76
2020-10-04 04:00:00 11.6 5 Nordeste 30 Sudeste 0 -- -- 82
2020-10-04 03:00:00 8.7 4 Sudoeste 13 Oeste 0 -- -- 93
2020-10-04 02:00:00 8.2 3 Sur 9 Sur 0 -- -- 94
2020-10-04 01:00:00 8.8 4 Sudoeste 14 Nordeste 0 -- -- 89
2020-10-04 00:00:00 10.1 4 Nordeste 17 Este 0 -- -- 81
2020-10-03 23:00:00 9.8 3 Este 16 Nordeste 0 -- -- 86
2020-10-03 22:00:00 10.8 5 Nordeste 31 Sudeste 0 -- -- 84
2020-10-03 21:00:00 11 5 Nordeste 24 Nordeste 0 -- -- 76
2020-10-03 20:00:00 11.6 8 Nordeste 24 Este 0 -- -- 70
2020-10-03 19:00:00 11.3 5 Nordeste 15 Nordeste 0 -- -- 73
2020-10-03 18:00:00 11.5 3 Nordeste 24 Nordeste 0 -- -- 77
2020-10-03 17:00:00 11.2 2 Norte 16 Norte 0 -- -- 78
2020-10-03 16:00:00 10.7 7 Noroeste 15 Oeste 0.2 -- -- 82
2020-10-03 15:00:00 10.9 8 Nordeste 32 Nordeste 0 -- -- 73
2020-10-03 14:00:00 11.1 12 Nordeste 29 Nordeste 0 -- -- 74
2020-10-03 13:00:00 10.9 8 Nordeste 31 Nordeste 0 -- -- 75
2020-10-03 12:00:00 10 11 Nordeste 30 Nordeste 0 -- -- 73
2020-10-03 11:00:00 8.9 14 Nordeste 29 Nordeste 0 -- -- 80
2020-10-03 10:00:00 7.8 10 Nordeste 34 Nordeste 0.4 -- -- 87
2020-10-03 09:00:00 6.8 2 Nordeste 19 Norte 0.4 -- -- 98
2020-10-03 08:00:00 7.2 11 Nordeste 28 Nordeste 0.2 -- -- 88
2020-10-03 07:00:00 6.8 7 Nordeste 26 Nordeste 0.2 -- -- 92
2020-10-03 06:00:00 6.1 3 Oeste 14 Nordeste 1.8 -- -- 99
2020-10-03 05:00:00 6.5 3 Sur 23 Este 0.8 -- -- 97
2020-10-03 04:00:00 6.4 7 Nordeste 23 Este 0.8 -- -- 100
2020-10-03 03:00:00 6 3 Sur 7 Sudoeste 1.6 -- -- 100
2020-10-03 02:00:00 5.8 3 Sur 7 Oeste 1.4 -- -- 99
2020-10-03 01:00:00 6.2 4 Norte 27 Este 2 -- -- 92
2020-10-03 00:00:00 6.4 3 Sudoeste 8 Noroeste 1 -- -- 99
2020-10-02 23:00:00 6.7 3 Sur 8 Este 1.2 -- -- 99
2020-10-02 22:00:00 6.9 4 Norte 24 Nordeste 2.6 -- -- 95
2020-10-02 21:00:00 6.9 3 Sudeste 8 Sudoeste 2.2 -- -- 97
2020-10-02 20:00:00 7.9 3 Norte 22 Nordeste 0.6 -- -- 88
2020-10-02 19:00:00 8.8 3 Este 36 Este 0 -- -- 78
2020-10-02 18:00:00 8.8 10 Este 31 Este 0 -- -- 69
2020-10-02 17:00:00 7.7 12 Este 39 Nordeste 0.4 -- -- 80
2020-10-02 16:00:00 7.4 15 Nordeste 35 Nordeste 0.2 -- -- 80
2020-10-02 15:00:00 5.8 3 Oeste 8 Sudoeste 2.2 -- -- 93
2020-10-02 14:00:00 6.3 3 Noroeste 8 Noroeste 1 -- -- 92
2020-10-02 13:00:00 6.4 4 Norte 44 Nordeste 1 -- -- 90
2020-10-02 12:00:00 7.4 20 Nordeste 54 Este 0 -- -- 74
2020-10-02 11:00:00 5.8 10 Este 35 Sudeste 1.8 -- -- 85
2020-10-02 10:00:00 6.1 9 Norte 33 Nordeste 1.6 -- -- 88
2020-10-02 09:00:00 6.4 8 Nordeste 46 Nordeste 1.8 -- -- 86
2020-10-02 08:00:00 7.4 10 Nordeste 45 Este 2.4 -- -- 90
2020-10-02 07:00:00 8.8 12 Norte 41 Nordeste 2.4 -- -- 93
2020-10-02 06:00:00 11.2 12 Nordeste 41 Este 3.2 -- -- 87
2020-10-02 05:00:00 12.4 21 Nordeste 64 Nordeste 4.4 -- -- 85
2020-10-02 04:00:00 12.9 5 Nordeste 60 Este 4.4 -- -- 87
2020-10-02 03:00:00 14.3 12 Nordeste 45 Nordeste 7.6 -- -- 84
2020-10-02 02:00:00 15.5 11 Nordeste 53 Nordeste 3.4 -- -- 84
2020-10-02 01:00:00 13.3 5 Sudoeste 19 Sudoeste 2 -- -- 95
2020-10-02 00:00:00 15.6 5 Sur 30 Sudeste 0 -- -- 79
2020-10-01 23:00:00 17.1 11 Sudeste 47 Sudeste 0 -- -- 63
2020-10-01 22:00:00 15.5 8 Sudeste 35 Sudoeste 0 -- -- 71
2020-10-01 21:00:00 15.3 8 Sudoeste 23 Sudoeste 0 -- -- 68
2020-10-01 20:00:00 15.6 8 Sur 26 Sudoeste 0 -- -- 64
2020-10-01 19:00:00 16.5 6 Sur 23 Sur 0 -- -- 62
2020-10-01 18:00:00 17 6 Sudoeste 19 Sudeste 0 -- -- 59
2020-10-01 17:00:00 17.7 8 Sur 18 Sur 0 -- -- 53
2020-10-01 16:00:00 17.2 8 Sur 23 Sur 0 -- -- 51
2020-10-01 15:00:00 17.1 10 Sudeste 29 Nordeste 2.2 -- -- 51
2020-10-01 14:00:00 16.5 5 Este 19 Nordeste 0 -- -- 56
2020-10-01 13:00:00 15 5 Nordeste 14 Noroeste 0 -- -- 64
2020-10-01 12:00:00 14.1 5 Norte 13 Nordeste 0 -- -- 80
2020-10-01 11:00:00 12.5 0 Calma 14 Noroeste 0 -- -- 92
2020-10-01 10:00:00 11.7 4 Noroeste 8 Noroeste 0 -- -- 96
2020-10-01 09:00:00 11.4 0 Calma 8 Nordeste 0 -- -- 96
2020-10-01 08:00:00 11.9 3 Noroeste 12 Nordeste 0.2 -- -- 93
2020-10-01 07:00:00 12.9 5 Nordeste 21 Este 0 -- -- 85
2020-10-01 06:00:00 12.6 5 Norte 25 Este 0 -- -- 88
2020-10-01 05:00:00 13.5 5 Norte 28 Este 0.2 -- -- 91
2020-10-01 04:00:00 15.9 9 Nordeste 40 Sudeste 0 -- -- 71
2020-10-01 03:00:00 15.4 10 Nordeste 27 Este 0 -- -- 78
2020-10-01 02:00:00 13.4 5 Sudoeste 24 Nordeste 0 -- -- 88
2020-10-01 01:00:00 11.2 0 Calma 6 Sur 0 -- -- 96
2020-10-01 00:00:00 10.3 2 Sur 6 Sudoeste 0 -- -- 97
2020-09-30 23:00:00 10.1 0 Calma 7 Sudeste 0 -- -- 94
2020-09-30 22:00:00 10.9 3 Sudoeste 7 Sudoeste 0 -- -- 92
2020-09-30 21:00:00 12.9 3 Sudeste 5 Oeste 0 -- -- 88
2020-09-30 20:00:00 16.1 2 Sudoeste 6 Oeste 0 -- -- 79
2020-09-30 19:00:00 19 3 Sur 15 Norte 0 -- -- 65
2020-09-30 18:00:00 20 4 Norte 17 Nordeste 0 -- -- 54
2020-09-30 17:00:00 22.3 5 Noroeste 17 Norte 0 -- -- 52
2020-09-30 16:00:00 22.6 8 Norte 18 Nordeste 0 -- -- 53
2020-09-30 15:00:00 22 7 Noroeste 16 Noroeste 0 -- -- 53
2020-09-30 14:00:00 21 5 Norte 15 Noroeste 0 -- -- 60
2020-09-30 13:00:00 18.7 0 Calma 0 Calma 0 -- -- 73
2020-09-30 12:00:00 13.4 0 Calma 0 Calma 0 -- -- 100
2020-09-30 11:00:00 7.1 0 Calma 0 Calma 0 -- -- 100
2020-09-30 10:00:00 6.6 0 Calma 0 Calma 0 -- -- 100
2020-09-30 09:00:00 6.2 0 Calma 0 Calma 0 -- -- 100
2020-09-30 08:00:00 6.1 0 Calma 0 Calma 0 -- -- 100
2020-09-30 07:00:00 6.5 0 Calma 0 Calma 0 -- -- 100
2020-09-30 06:00:00 6.6 0 Calma 0 Calma 0 -- -- 100
2020-09-30 05:00:00 7 0 Calma 0 Calma 0 -- -- 100
2020-09-30 04:00:00 7.2 0 Calma 0 Calma 0 -- -- 100
2020-09-30 03:00:00 7.6 0 Calma 0 Calma 0 -- -- 100
2020-09-30 02:00:00 8.2 0 Calma 0 Calma 0 -- -- 100
2020-09-30 01:00:00 8.7 0 Calma 0 Calma 0 -- -- 99
2020-09-30 00:00:00 9.1 0 Calma 0 Calma 0 -- -- 99